Buoy 51627

sailwx.info

Track history (hours):
 
Tides and Currents Weather Stations Pressure Air Temp Water Temp Dewpoint Dewpoint Depression Visibility Wind Speed Wind Dir Waves Ship Positions

Drifting buoy 51627

Last reported at 2016-May-27 21:00 UTC. Time now 2016-May-28 04:03 UTC.
Position N 16°04' E 135°28'.

Water temperature 29.4 ° C

Date/timePositionNaut miles runAvg speedWind from/ knotsBaromVisibWave heightAir tempDewpointWater temp
2016-May-27 21:00N 16°04' E 135°28'1 1.3 29.4
2016-May-27 20:00N 16°04' E 135°30'0 0.0 29.4
2016-May-27 18:00N 16°04' E 135°30'0 0.4 29.5
2016-May-27 17:00N 16°04' E 135°30'0 0.0 29.5
2016-May-27 16:00N 16°04' E 135°30'2 0.5 29.5
2016-May-27 13:00N 16°02' E 135°30'1 0.6 29.6
2016-May-27 11:00N 16°01' E 135°31'2 1.1 29.7
2016-May-27 09:00N 16°01' E 135°34'1 1.0 29.8
2016-May-27 08:00N 16°01' E 135°35'0 0.0 29.9
2016-May-27 07:00N 16°01' E 135°35'0 0.5 29.9
2016-May-27 06:00N 16°01' E 135°35'0 0.0 30.0
2016-May-27 05:00N 16°01' E 135°35'0 0.0 30.2
2016-May-27 04:00N 16°01' E 135°35'1 0.3 30.2
2016-May-27 01:00N 16°00' E 135°35'1 0.5 29.5
2016-May-27 00:00N 15°60' E 135°35'1 0.7 29.3
2016-May-26 23:00N 15°59' E 135°35'0 0.2 29.2
2016-May-26 22:00N 15°59' E 135°35'1 1.0 29.2
2016-May-26 21:00N 15°59' E 135°36'1 1.2 29.2
2016-May-26 20:00N 15°58' E 135°37'0 0.0 29.2
2016-May-26 19:00N 15°58' E 135°37'1 0.3 29.2
2016-May-26 17:00N 15°58' E 135°37'0 0.0 29.2
2016-May-26 16:00N 15°58' E 135°37'3 0.7 29.2
2016-May-26 12:00N 15°55' E 135°37'2 2.3 29.2
2016-May-26 11:00N 15°53' E 135°38'1 0.7 29.2
2016-May-26 09:00N 15°52' E 135°39'0 0.1 29.3
2016-May-26 07:00N 15°52' E 135°39'1 1.4 29.3
2016-May-26 06:00N 15°51' E 135°40'0 0.0 29.3
2016-May-26 05:00N 15°51' E 135°40'3 2.7 29.3
2016-May-26 04:00N 15°48' E 135°41'1 0.3 29.3
2016-May-26 00:00N 15°48' E 135°42'2 0.8 29.2
2016-May-25 21:00N 15°47' E 135°44'2 2.5 29.2
2016-May-25 20:00N 15°47' E 135°47'0 0.0 29.2
2016-May-25 19:00N 15°47' E 135°47'0 0.2 29.2
2016-May-25 17:00N 15°47' E 135°46'0 0.0 29.2
2016-May-25 16:00N 15°47' E 135°46'1 0.5 29.2
2016-May-25 13:00N 15°47' E 135°48'0 0.0 29.2
2016-May-25 12:00N 15°47' E 135°48'0 0.5 29.2
2016-May-25 11:00N 15°47' E 135°47'1 0.6 29.2
2016-May-25 10:00N 15°48' E 135°47'1 0.8 29.2
2016-May-25 09:00N 15°47' E 135°47'0 0.4 29.1
2016-May-25 08:00N 15°46' E 135°47'2 1.6 29.1
2016-May-25 07:00N 15°45' E 135°46'0 0.0 29.1
2016-May-25 06:00N 15°45' E 135°46'3 0.6 29.1
2016-May-25 01:00N 15°42' E 135°46'3 0.8 29.2
2016-May-24 21:00N 15°39' E 135°47'1 1.1 29.2
2016-May-24 20:00N 15°38' E 135°48'2 1.9 29.2
2016-May-24 19:00N 15°38' E 135°50'2 0.7 29.2
2016-May-24 16:00N 15°36' E 135°49'0 0.0 29.3
2016-May-24 13:00N 15°36' E 135°49'2 0.9 29.4
2016-May-24 11:00N 15°34' E 135°50'0 0.0 29.5
2016-May-24 10:00N 15°34' E 135°50'0 0.3 29.6
2016-May-24 09:00N 15°34' E 135°50'1 0.5 29.7
2016-May-24 08:00N 15°33' E 135°50'2 1.6 29.9
2016-May-24 07:00N 15°32' E 135°51'0 0.0 29.9
2016-May-24 05:00N 15°32' E 135°51'3 0.8 30.0
2016-May-24 01:00N 15°30' E 135°54'0 0.2 31.3
2016-May-24 00:00N 15°30' E 135°54'0 0.0 30.3
2016-May-23 23:00N 15°30' E 135°54'1 0.7 29.4
2016-May-23 22:00N 15°30' E 135°54'0 0.2 29.2
2016-May-23 21:00N 15°30' E 135°55'0 0.1 29.2
2016-May-23 20:00N 15°30' E 135°55'2 0.3 29.2
2016-May-23 13:00N 15°29' E 135°53'0 0.2 29.4
2016-May-23 12:00N 15°29' E 135°53'1 0.8 29.4
2016-May-23 11:00N 15°28' E 135°53'1 0.8 29.4
2016-May-23 10:00N 15°27' E 135°52'1 0.5 29.4
2016-May-23 09:00N 15°27' E 135°52'1 1.2 29.5
2016-May-23 08:00N 15°26' E 135°52'0 0.0 29.6
2016-May-23 07:00N 15°26' E 135°52'2 0.9 29.7
2016-May-23 05:00N 15°24' E 135°53'0 0.0 29.6
2016-May-23 04:00N 15°24' E 135°53'3 0.8 29.6
2016-May-23 01:00N 15°22' E 135°55'1 0.4 29.3
2016-May-22 22:00N 15°21' E 135°56'0 0.4 29.2
2016-May-22 21:00N 15°21' E 135°56'0 0.1 29.2
2016-May-22 18:00N 15°22' E 135°56'0 0.0 29.2
2016-May-22 17:00N 15°22' E 135°56'2 0.5 29.2
2016-May-22 13:00N 15°20' E 135°54'0 0.2 29.2
2016-May-22 11:00N 15°20' E 135°55'1 0.6 29.2
2016-May-22 10:00N 15°19' E 135°54'6 1.2 29.2
2016-May-22 05:00N 15°15' E 135°58'0 0.1 29.3
2016-May-22 01:00N 15°15' E 135°59'0 0.0 29.2
2016-May-21 23:00N 15°15' E 135°59'1 0.4 29.1
2016-May-21 21:00N 15°15' E 135°60'0 0.4 29.1
2016-May-21 20:00N 15°15' E 136°00'1 0.3 29.1
2016-May-21 18:00N 15°15' E 135°60'0 0.5 29.1
2016-May-21 17:00N 15°14' E 135°59'0 0.0 29.1
2016-May-21 16:00N 15°14' E 135°59'2 0.5 29.1
2016-May-21 12:00N 15°12' E 135°60'2 1.6 29.2
2016-May-21 11:00N 15°11' E 136°00'0 0.0 29.2
2016-May-21 10:00N 15°11' E 136°00'2 0.8 29.2
2016-May-21 08:00N 15°10' E 136°02'1 1.5 29.3
2016-May-21 07:00N 15°11' E 136°00'4 1.9 29.4
2016-May-21 05:00N 15°08' E 136°03'0 0.0 29.3
2016-May-21 01:00N 15°08' E 136°03'1 0.3 29.1
2016-May-20 22:00N 15°07' E 136°04'1 0.4 28.9
2016-May-20 20:00N 15°08' E 136°04'0 0.0 29.0
2016-May-20 19:00N 15°08' E 136°04'0 0.1 29.0
2016-May-20 18:00N 15°08' E 136°04'0 0.1 29.0
2016-May-20 16:00N 15°08' E 136°04'3 0.7 29.0
2016-May-20 12:00N 15°05' E 136°05'0 0.0 29.0
2016-May-20 11:00N 15°05' E 136°05'2 0.6 29.1
2016-May-20 08:00N 15°03' E 136°06'5 1.5 29.1
2016-May-20 05:00N 15°00' E 136°09'0 0.0 29.2
2016-May-20 04:00N 15°00' E 136°09'1 0.3 29.1
2016-May-20 00:00N 14°60' E 136°10'0 0.3 28.9
2016-May-19 23:00N 14°59' E 136°10'0 0.1 28.9
2016-May-19 20:00N 14°59' E 136°10'0 0.2 28.8
2016-May-19 19:00N 14°59' E 136°10'0 0.2 28.8
2016-May-19 18:00N 14°59' E 136°10'0 0.2 28.9
2016-May-19 17:00N 14°59' E 136°10'3 0.5 28.9
2016-May-19 11:00N 14°56' E 136°12'1 0.3 29.0
2016-May-19 09:00N 14°56' E 136°12'1 0.9 29.1
2016-May-19 08:00N 14°55' E 136°13'0 0.0 29.2
2016-May-19 07:00N 14°55' E 136°13'2 0.6 29.3
2016-May-19 04:00N 14°54' E 136°14'1 0.2 29.2
2016-May-18 22:00N 14°53' E 136°15'1 0.3 28.7
2016-May-18 20:00N 14°53' E 136°15'0 0.1 28.7
2016-May-18 18:00N 14°53' E 136°15'0 0.3 28.7
2016-May-18 17:00N 14°53' E 136°14'0 0.0 28.7
2016-May-18 16:00N 14°53' E 136°14'1 0.4 28.7
2016-May-18 13:00N 14°52' E 136°15'1 0.8 28.8
2016-May-18 12:00N 14°52' E 136°15'0 0.0 28.9
2016-May-18 11:00N 14°52' E 136°15'1 0.4 28.9
2016-May-18 09:00N 14°51' E 136°15'1 0.8 28.9
2016-May-18 08:00N 14°50' E 136°16'1 0.5 29.0
2016-May-18 07:00N 14°50' E 136°16'1 0.7 29.0
2016-May-18 06:00N 14°50' E 136°17'1 0.9 29.1
2016-May-18 05:00N 14°49' E 136°18'3 0.6 29.1
2016-May-18 01:00N 14°49' E 136°20'0 0.0 28.8
2016-May-18 00:00N 14°49' E 136°20'1 0.8 28.8
2016-May-17 23:00N 14°49' E 136°21'   28.7
Track history (hours):
 
Tides and Currents Weather Stations Pressure Air Temp Water Temp Dewpoint Dewpoint Depression Visibility Wind Speed Wind Dir Waves Ship Positions

Drifting buoy 51627

Last reported at 2016-May-27 21:00 UTC. Time now 2016-May-28 04:03 UTC.
Position N 16°04' E 135°28'.

Water temperature 29.4 ° C

Date/timePositionNaut miles runAvg speedWind from/ knotsBaromVisibWave heightAir tempDewpointWater temp
2016-May-27 21:00N 16°04' E 135°28'1 1.3 29.4
2016-May-27 20:00N 16°04' E 135°30'0 0.0 29.4
2016-May-27 18:00N 16°04' E 135°30'0 0.4 29.5
2016-May-27 17:00N 16°04' E 135°30'0 0.0 29.5
2016-May-27 16:00N 16°04' E 135°30'2 0.5 29.5
2016-May-27 13:00N 16°02' E 135°30'1 0.6 29.6
2016-May-27 11:00N 16°01' E 135°31'2 1.1 29.7
2016-May-27 09:00N 16°01' E 135°34'1 1.0 29.8
2016-May-27 08:00N 16°01' E 135°35'0 0.0 29.9
2016-May-27 07:00N 16°01' E 135°35'0 0.5 29.9
2016-May-27 06:00N 16°01' E 135°35'0 0.0 30.0
2016-May-27 05:00N 16°01' E 135°35'0 0.0 30.2
2016-May-27 04:00N 16°01' E 135°35'1 0.3 30.2
2016-May-27 01:00N 16°00' E 135°35'1 0.5 29.5
2016-May-27 00:00N 15°60' E 135°35'1 0.7 29.3
2016-May-26 23:00N 15°59' E 135°35'0 0.2 29.2
2016-May-26 22:00N 15°59' E 135°35'1 1.0 29.2
2016-May-26 21:00N 15°59' E 135°36'1 1.2 29.2
2016-May-26 20:00N 15°58' E 135°37'0 0.0 29.2
2016-May-26 19:00N 15°58' E 135°37'1 0.3 29.2
2016-May-26 17:00N 15°58' E 135°37'0 0.0 29.2
2016-May-26 16:00N 15°58' E 135°37'3 0.7 29.2
2016-May-26 12:00N 15°55' E 135°37'2 2.3 29.2
2016-May-26 11:00N 15°53' E 135°38'1 0.7 29.2
2016-May-26 09:00N 15°52' E 135°39'0 0.1 29.3
2016-May-26 07:00N 15°52' E 135°39'1 1.4 29.3
2016-May-26 06:00N 15°51' E 135°40'0 0.0 29.3
2016-May-26 05:00N 15°51' E 135°40'3 2.7 29.3
2016-May-26 04:00N 15°48' E 135°41'1 0.3 29.3
2016-May-26 00:00N 15°48' E 135°42'2 0.8 29.2
2016-May-25 21:00N 15°47' E 135°44'2 2.5 29.2
2016-May-25 20:00N 15°47' E 135°47'0 0.0 29.2
2016-May-25 19:00N 15°47' E 135°47'0 0.2 29.2
2016-May-25 17:00N 15°47' E 135°46'0 0.0 29.2
2016-May-25 16:00N 15°47' E 135°46'1 0.5 29.2
2016-May-25 13:00N 15°47' E 135°48'0 0.0 29.2
2016-May-25 12:00N 15°47' E 135°48'0 0.5 29.2
2016-May-25 11:00N 15°47' E 135°47'1 0.6 29.2
2016-May-25 10:00N 15°48' E 135°47'1 0.8 29.2
2016-May-25 09:00N 15°47' E 135°47'0 0.4 29.1
2016-May-25 08:00N 15°46' E 135°47'2 1.6 29.1
2016-May-25 07:00N 15°45' E 135°46'0 0.0 29.1
2016-May-25 06:00N 15°45' E 135°46'3 0.6 29.1
2016-May-25 01:00N 15°42' E 135°46'3 0.8 29.2
2016-May-24 21:00N 15°39' E 135°47'1 1.1 29.2
2016-May-24 20:00N 15°38' E 135°48'2 1.9 29.2
2016-May-24 19:00N 15°38' E 135°50'2 0.7 29.2
2016-May-24 16:00N 15°36' E 135°49'0 0.0 29.3
2016-May-24 13:00N 15°36' E 135°49'2 0.9 29.4
2016-May-24 11:00N 15°34' E 135°50'0 0.0 29.5
2016-May-24 10:00N 15°34' E 135°50'0 0.3 29.6
2016-May-24 09:00N 15°34' E 135°50'1 0.5 29.7
2016-May-24 08:00N 15°33' E 135°50'2 1.6 29.9
2016-May-24 07:00N 15°32' E 135°51'0 0.0 29.9
2016-May-24 05:00N 15°32' E 135°51'3 0.8 30.0
2016-May-24 01:00N 15°30' E 135°54'0 0.2 31.3
2016-May-24 00:00N 15°30' E 135°54'0 0.0 30.3
2016-May-23 23:00N 15°30' E 135°54'1 0.7 29.4
2016-May-23 22:00N 15°30' E 135°54'0 0.2 29.2
2016-May-23 21:00N 15°30' E 135°55'0 0.1 29.2
2016-May-23 20:00N 15°30' E 135°55'2 0.3 29.2
2016-May-23 13:00N 15°29' E 135°53'0 0.2 29.4
2016-May-23 12:00N 15°29' E 135°53'1 0.8 29.4
2016-May-23 11:00N 15°28' E 135°53'1 0.8 29.4
2016-May-23 10:00N 15°27' E 135°52'1 0.5 29.4
2016-May-23 09:00N 15°27' E 135°52'1 1.2 29.5
2016-May-23 08:00N 15°26' E 135°52'0 0.0 29.6
2016-May-23 07:00N 15°26' E 135°52'2 0.9 29.7
2016-May-23 05:00N 15°24' E 135°53'0 0.0 29.6
2016-May-23 04:00N 15°24' E 135°53'3 0.8 29.6
2016-May-23 01:00N 15°22' E 135°55'1 0.4 29.3
2016-May-22 22:00N 15°21' E 135°56'0 0.4 29.2
2016-May-22 21:00N 15°21' E 135°56'0 0.1 29.2
2016-May-22 18:00N 15°22' E 135°56'0 0.0 29.2
2016-May-22 17:00N 15°22' E 135°56'2 0.5 29.2
2016-May-22 13:00N 15°20' E 135°54'0 0.2 29.2
2016-May-22 11:00N 15°20' E 135°55'1 0.6 29.2
2016-May-22 10:00N 15°19' E 135°54'6 1.2 29.2
2016-May-22 05:00N 15°15' E 135°58'0 0.1 29.3
2016-May-22 01:00N 15°15' E 135°59'0 0.0 29.2
2016-May-21 23:00N 15°15' E 135°59'1 0.4 29.1
2016-May-21 21:00N 15°15' E 135°60'0 0.4 29.1
2016-May-21 20:00N 15°15' E 136°00'1 0.3 29.1
2016-May-21 18:00N 15°15' E 135°60'0 0.5 29.1
2016-May-21 17:00N 15°14' E 135°59'0 0.0 29.1
2016-May-21 16:00N 15°14' E 135°59'2 0.5 29.1
2016-May-21 12:00N 15°12' E 135°60'2 1.6 29.2
2016-May-21 11:00N 15°11' E 136°00'0 0.0 29.2
2016-May-21 10:00N 15°11' E 136°00'2 0.8 29.2
2016-May-21 08:00N 15°10' E 136°02'1 1.5 29.3
2016-May-21 07:00N 15°11' E 136°00'4 1.9 29.4
2016-May-21 05:00N 15°08' E 136°03'0 0.0 29.3
2016-May-21 01:00N 15°08' E 136°03'1 0.3 29.1
2016-May-20 22:00N 15°07' E 136°04'1 0.4 28.9
2016-May-20 20:00N 15°08' E 136°04'0 0.0 29.0
2016-May-20 19:00N 15°08' E 136°04'0 0.1 29.0
2016-May-20 18:00N 15°08' E 136°04'0 0.1 29.0
2016-May-20 16:00N 15°08' E 136°04'3 0.7 29.0
2016-May-20 12:00N 15°05' E 136°05'0 0.0 29.0
2016-May-20 11:00N 15°05' E 136°05'2 0.6 29.1
2016-May-20 08:00N 15°03' E 136°06'5 1.5 29.1
2016-May-20 05:00N 15°00' E 136°09'0 0.0 29.2
2016-May-20 04:00N 15°00' E 136°09'1 0.3 29.1
2016-May-20 00:00N 14°60' E 136°10'0 0.3 28.9
2016-May-19 23:00N 14°59' E 136°10'0 0.1 28.9
2016-May-19 20:00N 14°59' E 136°10'0 0.2 28.8
2016-May-19 19:00N 14°59' E 136°10'0 0.2 28.8
2016-May-19 18:00N 14°59' E 136°10'0 0.2 28.9
2016-May-19 17:00N 14°59' E 136°10'3 0.5 28.9
2016-May-19 11:00N 14°56' E 136°12'1 0.3 29.0
2016-May-19 09:00N 14°56' E 136°12'1 0.9 29.1
2016-May-19 08:00N 14°55' E 136°13'0 0.0 29.2
2016-May-19 07:00N 14°55' E 136°13'2 0.6 29.3
2016-May-19 04:00N 14°54' E 136°14'1 0.2 29.2
2016-May-18 22:00N 14°53' E 136°15'1 0.3 28.7
2016-May-18 20:00N 14°53' E 136°15'0 0.1 28.7
2016-May-18 18:00N 14°53' E 136°15'0 0.3 28.7
2016-May-18 17:00N 14°53' E 136°14'0 0.0 28.7
2016-May-18 16:00N 14°53' E 136°14'1 0.4 28.7
2016-May-18 13:00N 14°52' E 136°15'1 0.8 28.8
2016-May-18 12:00N 14°52' E 136°15'0 0.0 28.9
2016-May-18 11:00N 14°52' E 136°15'1 0.4 28.9
2016-May-18 09:00N 14°51' E 136°15'1 0.8 28.9
2016-May-18 08:00N 14°50' E 136°16'1 0.5 29.0
2016-May-18 07:00N 14°50' E 136°16'1 0.7 29.0
2016-May-18 06:00N 14°50' E 136°17'1 0.9 29.1
2016-May-18 05:00N 14°49' E 136°18'3 0.6 29.1
2016-May-18 01:00N 14°49' E 136°20'0 0.0 28.8
2016-May-18 00:00N 14°49' E 136°20'1 0.8 28.8
2016-May-17 23:00N 14°49' E 136°21'   28.7

Dump ship's entire track history